sensor_id;sensor_type;location;lat;lon;timestamp;temperature;humidity
52543;DHT22;38449;52.696;6.186;2023-04-25T00:00:17;6.20;99.90
52543;DHT22;38449;52.696;6.186;2023-04-25T00:02:44;6.20;99.90
52543;DHT22;38449;52.696;6.186;2023-04-25T00:05:10;6.20;99.90
52543;DHT22;38449;52.696;6.186;2023-04-25T00:07:36;6.10;99.90
52543;DHT22;38449;52.696;6.186;2023-04-25T00:10:03;6.00;99.90
52543;DHT22;38449;52.696;6.186;2023-04-25T00:12:30;6.10;99.90
52543;DHT22;38449;52.696;6.186;2023-04-25T00:14:56;6.10;99.90
52543;DHT22;38449;52.696;6.186;2023-04-25T00:17:25;6.00;99.90
52543;DHT22;38449;52.696;6.186;2023-04-25T00:19:52;6.00;99.90
52543;DHT22;38449;52.696;6.186;2023-04-25T00:22:19;5.90;99.90
52543;DHT22;38449;52.696;6.186;2023-04-25T00:24:45;5.90;99.90
52543;DHT22;38449;52.696;6.186;2023-04-25T00:27:11;5.90;99.90
52543;DHT22;38449;52.696;6.186;2023-04-25T00:29:37;6.00;99.90
52543;DHT22;38449;52.696;6.186;2023-04-25T00:32:04;5.90;99.90
52543;DHT22;38449;52.696;6.186;2023-04-25T00:34:30;5.90;99.90
52543;DHT22;38449;52.696;6.186;2023-04-25T00:36:56;5.90;99.90
52543;DHT22;38449;52.696;6.186;2023-04-25T00:39:22;5.80;99.90
52543;DHT22;38449;52.696;6.186;2023-04-25T00:41:50;5.80;99.90
52543;DHT22;38449;52.696;6.186;2023-04-25T00:44:19;5.80;99.90
52543;DHT22;38449;52.696;6.186;2023-04-25T00:46:47;5.80;99.90
52543;DHT22;38449;52.696;6.186;2023-04-25T00:49:14;5.80;99.90
52543;DHT22;38449;52.696;6.186;2023-04-25T00:51:43;5.80;99.90
52543;DHT22;38449;52.696;6.186;2023-04-25T00:54:14;5.90;99.90
52543;DHT22;38449;52.696;6.186;2023-04-25T00:56:41;5.90;99.90
52543;DHT22;38449;52.696;6.186;2023-04-25T00:59:09;5.90;99.90
52543;DHT22;38449;52.696;6.186;2023-04-25T01:01:36;5.90;99.90
52543;DHT22;38449;52.696;6.186;2023-04-25T01:04:03;5.90;99.90
52543;DHT22;38449;52.696;6.186;2023-04-25T01:06:30;5.90;99.90
52543;DHT22;38449;52.696;6.186;2023-04-25T01:08:57;5.90;99.90
52543;DHT22;38449;52.696;6.186;2023-04-25T01:11:25;5.90;99.90
52543;DHT22;38449;52.696;6.186;2023-04-25T01:13:51;6.00;99.90
52543;DHT22;38449;52.696;6.186;2023-04-25T01:16:17;6.00;99.90
52543;DHT22;38449;52.696;6.186;2023-04-25T01:18:44;6.00;99.90
52543;DHT22;38449;52.696;6.186;2023-04-25T01:21:11;6.00;99.90
52543;DHT22;38449;52.696;6.186;2023-04-25T01:23:40;6.10;99.90
52543;DHT22;38449;52.696;6.186;2023-04-25T01:26:09;6.00;99.90
52543;DHT22;38449;52.696;6.186;2023-04-25T01:28:37;6.00;99.90
52543;DHT22;38449;52.696;6.186;2023-04-25T01:31:04;5.90;99.90
52543;DHT22;38449;52.696;6.186;2023-04-25T01:33:31;5.90;99.90
52543;DHT22;38449;52.696;6.186;2023-04-25T01:35:58;5.90;99.90
52543;DHT22;38449;52.696;6.186;2023-04-25T01:38:24;5.90;99.90
52543;DHT22;38449;52.696;6.186;2023-04-25T01:40:51;5.90;99.90
52543;DHT22;38449;52.696;6.186;2023-04-25T01:43:18;5.90;99.90
52543;DHT22;38449;52.696;6.186;2023-04-25T01:45:44;5.90;99.90
52543;DHT22;38449;52.696;6.186;2023-04-25T01:48:12;6.00;99.90
52543;DHT22;38449;52.696;6.186;2023-04-25T01:50:39;5.90;99.90
52543;DHT22;38449;52.696;6.186;2023-04-25T01:53:06;6.00;99.90
52543;DHT22;38449;52.696;6.186;2023-04-25T01:55:33;6.00;99.90
52543;DHT22;38449;52.696;6.186;2023-04-25T01:57:59;6.10;99.90
52543;DHT22;38449;52.696;6.186;2023-04-25T02:00:26;6.00;99.90
52543;DHT22;38449;52.696;6.186;2023-04-25T02:02:52;6.10;99.90
52543;DHT22;38449;52.696;6.186;2023-04-25T02:05:19;6.00;99.90
52543;DHT22;38449;52.696;6.186;2023-04-25T02:07:47;6.10;99.90
52543;DHT22;38449;52.696;6.186;2023-04-25T02:10:13;6.20;99.90
52543;DHT22;38449;52.696;6.186;2023-04-25T02:12:40;6.20;99.90
52543;DHT22;38449;52.696;6.186;2023-04-25T02:15:06;6.20;99.90
52543;DHT22;38449;52.696;6.186;2023-04-25T02:17:32;6.20;99.90
52543;DHT22;38449;52.696;6.186;2023-04-25T02:19:59;6.20;99.90
52543;DHT22;38449;52.696;6.186;2023-04-25T02:22:25;6.20;99.90
52543;DHT22;38449;52.696;6.186;2023-04-25T02:24:54;6.20;99.90
52543;DHT22;38449;52.696;6.186;2023-04-25T02:27:21;6.20;99.90
52543;DHT22;38449;52.696;6.186;2023-04-25T02:29:47;6.10;99.90
52543;DHT22;38449;52.696;6.186;2023-04-25T02:32:13;6.20;99.90
52543;DHT22;38449;52.696;6.186;2023-04-25T02:34:39;6.00;99.90
52543;DHT22;38449;52.696;6.186;2023-04-25T02:37:06;6.10;99.90
52543;DHT22;38449;52.696;6.186;2023-04-25T02:39:32;6.10;99.90
52543;DHT22;38449;52.696;6.186;2023-04-25T02:41:58;6.10;99.90
52543;DHT22;38449;52.696;6.186;2023-04-25T02:44:24;6.10;99.90
52543;DHT22;38449;52.696;6.186;2023-04-25T02:46:50;6.00;99.90
52543;DHT22;38449;52.696;6.186;2023-04-25T02:49:17;6.00;99.90
52543;DHT22;38449;52.696;6.186;2023-04-25T02:51:43;6.00;99.90
52543;DHT22;38449;52.696;6.186;2023-04-25T02:54:09;6.10;99.90
52543;DHT22;38449;52.696;6.186;2023-04-25T02:56:35;6.00;99.90
52543;DHT22;38449;52.696;6.186;2023-04-25T02:59:02;6.10;99.90
52543;DHT22;38449;52.696;6.186;2023-04-25T03:01:28;6.00;99.90
52543;DHT22;38449;52.696;6.186;2023-04-25T03:03:54;6.00;99.90
52543;DHT22;38449;52.696;6.186;2023-04-25T03:06:20;6.00;99.90
52543;DHT22;38449;52.696;6.186;2023-04-25T03:08:46;6.00;99.90
52543;DHT22;38449;52.696;6.186;2023-04-25T03:11:13;6.00;99.90
52543;DHT22;38449;52.696;6.186;2023-04-25T03:13:39;5.90;99.90
52543;DHT22;38449;52.696;6.186;2023-04-25T03:16:05;5.90;99.90
52543;DHT22;38449;52.696;6.186;2023-04-25T03:18:32;6.00;99.90
52543;DHT22;38449;52.696;6.186;2023-04-25T03:20:58;5.90;99.90
52543;DHT22;38449;52.696;6.186;2023-04-25T03:23:24;5.90;99.90
52543;DHT22;38449;52.696;6.186;2023-04-25T03:25:51;6.00;99.90
52543;DHT22;38449;52.696;6.186;2023-04-25T03:28:17;5.90;99.90
52543;DHT22;38449;52.696;6.186;2023-04-25T03:30:43;5.90;99.90
52543;DHT22;38449;52.696;6.186;2023-04-25T03:33:09;5.90;99.90
52543;DHT22;38449;52.696;6.186;2023-04-25T03:35:36;5.90;99.90
52543;DHT22;38449;52.696;6.186;2023-04-25T03:38:02;5.80;99.90
52543;DHT22;38449;52.696;6.186;2023-04-25T03:40:28;5.80;99.90
52543;DHT22;38449;52.696;6.186;2023-04-25T03:42:54;5.80;99.90
52543;DHT22;38449;52.696;6.186;2023-04-25T03:45:21;5.80;99.90
52543;DHT22;38449;52.696;6.186;2023-04-25T03:47:47;5.80;99.90
52543;DHT22;38449;52.696;6.186;2023-04-25T03:50:13;5.70;99.90
52543;DHT22;38449;52.696;6.186;2023-04-25T03:52:39;5.80;99.90
52543;DHT22;38449;52.696;6.186;2023-04-25T03:55:06;5.70;99.90
52543;DHT22;38449;52.696;6.186;2023-04-25T03:57:32;5.70;99.90
52543;DHT22;38449;52.696;6.186;2023-04-25T03:59:58;5.70;99.90
52543;DHT22;38449;52.696;6.186;2023-04-25T04:02:25;5.80;99.90
52543;DHT22;38449;52.696;6.186;2023-04-25T04:04:51;5.70;99.90
52543;DHT22;38449;52.696;6.186;2023-04-25T04:07:17;5.70;99.90
52543;DHT22;38449;52.696;6.186;2023-04-25T04:09:44;5.70;99.90
52543;DHT22;38449;52.696;6.186;2023-04-25T04:12:10;5.70;99.90
52543;DHT22;38449;52.696;6.186;2023-04-25T04:14:36;5.70;99.90
52543;DHT22;38449;52.696;6.186;2023-04-25T04:17:02;5.60;99.90
52543;DHT22;38449;52.696;6.186;2023-04-25T04:19:28;5.60;99.90
52543;DHT22;38449;52.696;6.186;2023-04-25T04:21:55;5.60;99.90
52543;DHT22;38449;52.696;6.186;2023-04-25T04:24:21;5.60;99.90
52543;DHT22;38449;52.696;6.186;2023-04-25T04:26:47;5.60;99.90
52543;DHT22;38449;52.696;6.186;2023-04-25T04:29:13;5.60;99.90
52543;DHT22;38449;52.696;6.186;2023-04-25T04:31:48;5.60;99.90
52543;DHT22;38449;52.696;6.186;2023-04-25T04:34:18;5.50;99.90
52543;DHT22;38449;52.696;6.186;2023-04-25T04:36:45;5.60;99.90
52543;DHT22;38449;52.696;6.186;2023-04-25T04:39:14;5.50;99.90
52543;DHT22;38449;52.696;6.186;2023-04-25T04:41:41;5.60;99.90
52543;DHT22;38449;52.696;6.186;2023-04-25T04:44:07;5.60;99.90
52543;DHT22;38449;52.696;6.186;2023-04-25T04:46:34;5.50;99.90
52543;DHT22;38449;52.696;6.186;2023-04-25T04:49:11;5.50;99.90
52543;DHT22;38449;52.696;6.186;2023-04-25T04:51:40;5.50;99.90
52543;DHT22;38449;52.696;6.186;2023-04-25T04:54:10;5.60;99.90
52543;DHT22;38449;52.696;6.186;2023-04-25T04:56:36;5.60;99.90
52543;DHT22;38449;52.696;6.186;2023-04-25T04:59:04;5.60;99.90
52543;DHT22;38449;52.696;6.186;2023-04-25T05:01:30;5.50;99.90
52543;DHT22;38449;52.696;6.186;2023-04-25T05:03:57;5.60;99.90
52543;DHT22;38449;52.696;6.186;2023-04-25T05:06:27;5.60;99.90
52543;DHT22;38449;52.696;6.186;2023-04-25T05:08:56;5.60;99.90
52543;DHT22;38449;52.696;6.186;2023-04-25T05:11:22;5.60;99.90
52543;DHT22;38449;52.696;6.186;2023-04-25T05:13:52;5.60;99.90
52543;DHT22;38449;52.696;6.186;2023-04-25T05:16:19;5.60;99.90
52543;DHT22;38449;52.696;6.186;2023-04-25T05:18:46;5.60;99.90
52543;DHT22;38449;52.696;6.186;2023-04-25T05:21:13;5.60;99.90
52543;DHT22;38449;52.696;6.186;2023-04-25T05:23:39;5.70;99.90
52543;DHT22;38449;52.696;6.186;2023-04-25T05:26:05;5.60;99.90
52543;DHT22;38449;52.696;6.186;2023-04-25T05:28:31;5.70;99.90
52543;DHT22;38449;52.696;6.186;2023-04-25T05:30:58;6.00;99.90
52543;DHT22;38449;52.696;6.186;2023-04-25T05:33:24;6.70;99.90
52543;DHT22;38449;52.696;6.186;2023-04-25T05:35:50;7.30;99.90
52543;DHT22;38449;52.696;6.186;2023-04-25T05:38:16;8.00;99.90
52543;DHT22;38449;52.696;6.186;2023-04-25T05:40:43;8.60;99.90
52543;DHT22;38449;52.696;6.186;2023-04-25T05:43:09;9.30;99.90
52543;DHT22;38449;52.696;6.186;2023-04-25T05:45:36;9.80;99.90
52543;DHT22;38449;52.696;6.186;2023-04-25T05:48:02;10.20;99.90
52543;DHT22;38449;52.696;6.186;2023-04-25T05:50:29;9.90;99.90
52543;DHT22;38449;52.696;6.186;2023-04-25T05:52:55;8.90;99.90
52543;DHT22;38449;52.696;6.186;2023-04-25T05:55:21;8.20;99.90
52543;DHT22;38449;52.696;6.186;2023-04-25T05:57:47;7.70;99.90
52543;DHT22;38449;52.696;6.186;2023-04-25T06:00:14;7.40;99.90
52543;DHT22;38449;52.696;6.186;2023-04-25T06:02:42;7.20;99.90
52543;DHT22;38449;52.696;6.186;2023-04-25T06:05:08;7.00;99.90
52543;DHT22;38449;52.696;6.186;2023-04-25T06:07:35;6.90;99.90
52543;DHT22;38449;52.696;6.186;2023-04-25T06:10:01;6.80;99.90
52543;DHT22;38449;52.696;6.186;2023-04-25T06:12:27;6.80;99.90
52543;DHT22;38449;52.696;6.186;2023-04-25T06:14:54;6.80;99.90
52543;DHT22;38449;52.696;6.186;2023-04-25T06:17:20;6.70;99.90
52543;DHT22;38449;52.696;6.186;2023-04-25T06:19:46;6.70;99.90
52543;DHT22;38449;52.696;6.186;2023-04-25T06:22:12;6.80;99.90
52543;DHT22;38449;52.696;6.186;2023-04-25T06:24:38;6.70;99.90
52543;DHT22;38449;52.696;6.186;2023-04-25T06:27:11;6.70;99.90
52543;DHT22;38449;52.696;6.186;2023-04-25T06:29:37;6.70;99.90
52543;DHT22;38449;52.696;6.186;2023-04-25T06:32:04;7.50;99.90
52543;DHT22;38449;52.696;6.186;2023-04-25T06:34:30;8.20;99.90
52543;DHT22;38449;52.696;6.186;2023-04-25T06:36:57;8.50;99.90
52543;DHT22;38449;52.696;6.186;2023-04-25T06:39:23;9.00;99.90
52543;DHT22;38449;52.696;6.186;2023-04-25T06:41:50;9.10;99.90
52543;DHT22;38449;52.696;6.186;2023-04-25T06:44:17;9.70;99.90
52543;DHT22;38449;52.696;6.186;2023-04-25T06:46:43;10.20;99.90
52543;DHT22;38449;52.696;6.186;2023-04-25T06:49:09;10.20;99.90
52543;DHT22;38449;52.696;6.186;2023-04-25T06:51:35;10.60;99.90
52543;DHT22;38449;52.696;6.186;2023-04-25T06:54:02;10.30;99.90
52543;DHT22;38449;52.696;6.186;2023-04-25T06:56:30;9.90;99.90
52543;DHT22;38449;52.696;6.186;2023-04-25T06:58:56;9.50;99.90
52543;DHT22;38449;52.696;6.186;2023-04-25T07:01:23;9.10;99.90
52543;DHT22;38449;52.696;6.186;2023-04-25T07:03:49;8.90;99.90
52543;DHT22;38449;52.696;6.186;2023-04-25T07:06:15;8.60;99.90
52543;DHT22;38449;52.696;6.186;2023-04-25T07:08:42;8.60;99.90
52543;DHT22;38449;52.696;6.186;2023-04-25T07:11:08;8.40;99.90
52543;DHT22;38449;52.696;6.186;2023-04-25T07:13:34;8.40;99.90
52543;DHT22;38449;52.696;6.186;2023-04-25T07:16:01;8.30;99.90
52543;DHT22;38449;52.696;6.186;2023-04-25T07:18:27;8.40;99.90
52543;DHT22;38449;52.696;6.186;2023-04-25T07:20:53;8.30;99.90
52543;DHT22;38449;52.696;6.186;2023-04-25T07:23:20;8.30;99.90
52543;DHT22;38449;52.696;6.186;2023-04-25T07:25:46;8.40;99.90
52543;DHT22;38449;52.696;6.186;2023-04-25T07:28:12;8.60;99.90
52543;DHT22;38449;52.696;6.186;2023-04-25T07:30:39;8.50;99.90
52543;DHT22;38449;52.696;6.186;2023-04-25T07:33:05;8.50;99.90
52543;DHT22;38449;52.696;6.186;2023-04-25T07:35:31;8.50;99.90
52543;DHT22;38449;52.696;6.186;2023-04-25T07:37:57;8.50;99.90
52543;DHT22;38449;52.696;6.186;2023-04-25T07:40:25;8.30;99.90
52543;DHT22;38449;52.696;6.186;2023-04-25T07:42:51;8.60;99.90
52543;DHT22;38449;52.696;6.186;2023-04-25T07:45:17;8.70;99.90
52543;DHT22;38449;52.696;6.186;2023-04-25T07:47:43;9.00;99.90
52543;DHT22;38449;52.696;6.186;2023-04-25T07:50:11;9.20;99.90
52543;DHT22;38449;52.696;6.186;2023-04-25T07:52:37;9.50;99.90
52543;DHT22;38449;52.696;6.186;2023-04-25T07:55:04;9.70;99.90
52543;DHT22;38449;52.696;6.186;2023-04-25T07:57:39;9.70;99.90
52543;DHT22;38449;52.696;6.186;2023-04-25T08:00:06;9.80;99.90
52543;DHT22;38449;52.696;6.186;2023-04-25T08:02:35;10.10;99.90
52543;DHT22;38449;52.696;6.186;2023-04-25T08:05:02;10.20;99.90
52543;DHT22;38449;52.696;6.186;2023-04-25T08:07:29;10.00;99.90
52543;DHT22;38449;52.696;6.186;2023-04-25T08:09:55;9.70;99.90
52543;DHT22;38449;52.696;6.186;2023-04-25T08:12:21;9.20;99.90
52543;DHT22;38449;52.696;6.186;2023-04-25T08:14:47;8.80;99.90
52543;DHT22;38449;52.696;6.186;2023-04-25T08:17:13;8.50;99.90
52543;DHT22;38449;52.696;6.186;2023-04-25T08:19:40;8.30;99.90
52543;DHT22;38449;52.696;6.186;2023-04-25T08:22:06;8.10;99.90
52543;DHT22;38449;52.696;6.186;2023-04-25T08:24:32;8.10;99.90
52543;DHT22;38449;52.696;6.186;2023-04-25T08:26:59;8.00;99.90
52543;DHT22;38449;52.696;6.186;2023-04-25T08:29:25;8.20;99.90
52543;DHT22;38449;52.696;6.186;2023-04-25T08:31:51;8.20;99.90
52543;DHT22;38449;52.696;6.186;2023-04-25T08:34:19;8.30;99.90
52543;DHT22;38449;52.696;6.186;2023-04-25T08:36:46;8.30;99.90
52543;DHT22;38449;52.696;6.186;2023-04-25T08:39:12;8.30;99.90
52543;DHT22;38449;52.696;6.186;2023-04-25T08:41:40;8.40;99.90
52543;DHT22;38449;52.696;6.186;2023-04-25T08:44:09;8.40;99.90
52543;DHT22;38449;52.696;6.186;2023-04-25T08:46:38;8.60;99.90
52543;DHT22;38449;52.696;6.186;2023-04-25T08:49:04;8.80;99.90
52543;DHT22;38449;52.696;6.186;2023-04-25T08:51:31;9.00;99.90
52543;DHT22;38449;52.696;6.186;2023-04-25T08:54:09;9.20;99.90
52543;DHT22;38449;52.696;6.186;2023-04-25T08:56:37;9.50;99.90
52543;DHT22;38449;52.696;6.186;2023-04-25T08:59:04;9.50;99.90
52543;DHT22;38449;52.696;6.186;2023-04-25T09:01:36;9.60;99.90
52543;DHT22;38449;52.696;6.186;2023-04-25T09:04:03;9.70;99.90
52543;DHT22;38449;52.696;6.186;2023-04-25T09:06:29;10.00;99.90
52543;DHT22;38449;52.696;6.186;2023-04-25T09:09:04;10.10;99.90
52543;DHT22;38449;52.696;6.186;2023-04-25T09:11:32;10.10;99.90
52543;DHT22;38449;52.696;6.186;2023-04-25T09:14:14;10.00;99.90
52543;DHT22;38449;52.696;6.186;2023-04-25T09:19:31;9.80;99.90
52543;DHT22;38449;52.696;6.186;2023-04-25T09:21:59;9.70;99.90
52543;DHT22;38449;52.696;6.186;2023-04-25T09:27:04;9.60;99.90
52543;DHT22;38449;52.696;6.186;2023-04-25T09:29:32;9.60;99.90
52543;DHT22;38449;52.696;6.186;2023-04-25T09:32:12;9.70;99.90
52543;DHT22;38449;52.696;6.186;2023-04-25T09:34:50;9.80;99.90
52543;DHT22;38449;52.696;6.186;2023-04-25T09:40:00;9.90;99.90
52543;DHT22;38449;52.696;6.186;2023-04-25T09:42:32;10.00;99.90
52543;DHT22;38449;52.696;6.186;2023-04-25T09:45:01;10.00;99.90
52543;DHT22;38449;52.696;6.186;2023-04-25T09:47:28;10.00;99.90
52543;DHT22;38449;52.696;6.186;2023-04-25T09:49:55;10.20;99.90
52543;DHT22;38449;52.696;6.186;2023-04-25T09:52:23;10.20;99.90
52543;DHT22;38449;52.696;6.186;2023-04-25T09:54:50;10.10;99.90
52543;DHT22;38449;52.696;6.186;2023-04-25T09:57:22;10.20;99.90
52543;DHT22;38449;52.696;6.186;2023-04-25T09:59:50;10.30;99.90
52543;DHT22;38449;52.696;6.186;2023-04-25T10:02:19;10.30;99.90
52543;DHT22;38449;52.696;6.186;2023-04-25T10:04:53;10.50;99.90
52543;DHT22;38449;52.696;6.186;2023-04-25T10:07:23;10.70;99.90
52543;DHT22;38449;52.696;6.186;2023-04-25T10:09:59;10.80;99.90
52543;DHT22;38449;52.696;6.186;2023-04-25T10:12:26;10.70;99.90
52543;DHT22;38449;52.696;6.186;2023-04-25T10:14:54;10.70;99.90
52543;DHT22;38449;52.696;6.186;2023-04-25T10:17:21;10.70;99.90
52543;DHT22;38449;52.696;6.186;2023-04-25T10:19:47;10.70;99.90
52543;DHT22;38449;52.696;6.186;2023-04-25T10:22:17;10.70;99.90
52543;DHT22;38449;52.696;6.186;2023-04-25T10:24:45;10.50;99.90
52543;DHT22;38449;52.696;6.186;2023-04-25T10:27:12;10.10;99.90
52543;DHT22;38449;52.696;6.186;2023-04-25T10:29:39;9.40;99.90
52543;DHT22;38449;52.696;6.186;2023-04-25T10:32:08;9.20;99.90
52543;DHT22;38449;52.696;6.186;2023-04-25T10:34:44;8.80;99.90
52543;DHT22;38449;52.696;6.186;2023-04-25T10:37:13;8.70;99.90
52543;DHT22;38449;52.696;6.186;2023-04-25T10:39:40;8.80;99.90
52543;DHT22;38449;52.696;6.186;2023-04-25T10:42:09;9.10;99.90
52543;DHT22;38449;52.696;6.186;2023-04-25T10:45:04;9.20;99.90
52543;DHT22;38449;52.696;6.186;2023-04-25T10:47:36;9.40;99.90
52543;DHT22;38449;52.696;6.186;2023-04-25T10:50:09;9.30;99.90
52543;DHT22;38449;52.696;6.186;2023-04-25T10:52:38;9.30;99.90
52543;DHT22;38449;52.696;6.186;2023-04-25T10:55:05;9.20;99.90
52543;DHT22;38449;52.696;6.186;2023-04-25T10:57:42;9.30;99.90
52543;DHT22;38449;52.696;6.186;2023-04-25T11:00:15;9.40;99.90
52543;DHT22;38449;52.696;6.186;2023-04-25T11:02:42;9.50;99.90
52543;DHT22;38449;52.696;6.186;2023-04-25T11:05:09;9.40;99.90
52543;DHT22;38449;52.696;6.186;2023-04-25T11:07:49;9.50;99.90
52543;DHT22;38449;52.696;6.186;2023-04-25T11:10:27;9.60;99.90
52543;DHT22;38449;52.696;6.186;2023-04-25T11:12:53;9.80;99.90
52543;DHT22;38449;52.696;6.186;2023-04-25T11:15:20;9.90;99.90
52543;DHT22;38449;52.696;6.186;2023-04-25T11:17:46;10.00;99.90
52543;DHT22;38449;52.696;6.186;2023-04-25T11:20:13;10.20;99.90
52543;DHT22;38449;52.696;6.186;2023-04-25T11:22:44;10.40;99.90
52543;DHT22;38449;52.696;6.186;2023-04-25T11:25:12;10.30;99.90
52543;DHT22;38449;52.696;6.186;2023-04-25T11:27:59;10.10;99.90
52543;DHT22;38449;52.696;6.186;2023-04-25T11:30:27;10.20;99.90
52543;DHT22;38449;52.696;6.186;2023-04-25T11:33:02;10.20;99.90
52543;DHT22;38449;52.696;6.186;2023-04-25T11:35:29;10.50;99.90
52543;DHT22;38449;52.696;6.186;2023-04-25T11:37:55;10.60;99.90
52543;DHT22;38449;52.696;6.186;2023-04-25T11:40:21;10.90;99.90
52543;DHT22;38449;52.696;6.186;2023-04-25T11:42:48;11.00;99.90
52543;DHT22;38449;52.696;6.186;2023-04-25T11:45:14;10.90;99.90
52543;DHT22;38449;52.696;6.186;2023-04-25T11:47:41;10.70;99.90
52543;DHT22;38449;52.696;6.186;2023-04-25T11:50:08;10.70;99.90
52543;DHT22;38449;52.696;6.186;2023-04-25T11:52:45;10.90;99.90
52543;DHT22;38449;52.696;6.186;2023-04-25T11:55:17;11.10;99.90
52543;DHT22;38449;52.696;6.186;2023-04-25T11:57:48;10.70;99.90
52543;DHT22;38449;52.696;6.186;2023-04-25T12:00:24;10.40;99.90
52543;DHT22;38449;52.696;6.186;2023-04-25T12:02:53;9.70;99.90
52543;DHT22;38449;52.696;6.186;2023-04-25T12:05:27;9.50;99.90
52543;DHT22;38449;52.696;6.186;2023-04-25T12:07:53;9.20;99.90
52543;DHT22;38449;52.696;6.186;2023-04-25T12:10:20;9.00;99.90
52543;DHT22;38449;52.696;6.186;2023-04-25T12:12:47;9.00;99.90
52543;DHT22;38449;52.696;6.186;2023-04-25T12:17:45;9.00;99.90
52543;DHT22;38449;52.696;6.186;2023-04-25T12:20:19;9.30;99.90
52543;DHT22;38449;52.696;6.186;2023-04-25T12:22:47;9.70;99.90
52543;DHT22;38449;52.696;6.186;2023-04-25T12:28:18;10.20;99.90
52543;DHT22;38449;52.696;6.186;2023-04-25T12:31:02;9.90;99.90
52543;DHT22;38449;52.696;6.186;2023-04-25T12:33:31;9.60;99.90
52543;DHT22;38449;52.696;6.186;2023-04-25T12:35:58;9.70;99.90
52543;DHT22;38449;52.696;6.186;2023-04-25T12:38:27;10.00;99.90
52543;DHT22;38449;52.696;6.186;2023-04-25T12:40:55;10.00;99.90
52543;DHT22;38449;52.696;6.186;2023-04-25T12:43:21;9.90;99.90
52543;DHT22;38449;52.696;6.186;2023-04-25T12:45:49;10.20;99.90
52543;DHT22;38449;52.696;6.186;2023-04-25T12:48:16;10.20;99.90
52543;DHT22;38449;52.696;6.186;2023-04-25T12:50:43;10.20;99.90
52543;DHT22;38449;52.696;6.186;2023-04-25T12:53:10;10.10;99.90
52543;DHT22;38449;52.696;6.186;2023-04-25T12:55:37;10.10;99.90
52543;DHT22;38449;52.696;6.186;2023-04-25T12:58:03;10.00;99.90
52543;DHT22;38449;52.696;6.186;2023-04-25T13:00:30;10.10;99.90
52543;DHT22;38449;52.696;6.186;2023-04-25T13:02:57;10.30;99.90
52543;DHT22;38449;52.696;6.186;2023-04-25T13:05:23;10.50;99.90
52543;DHT22;38449;52.696;6.186;2023-04-25T13:07:50;10.80;99.90
52543;DHT22;38449;52.696;6.186;2023-04-25T13:10:16;11.10;99.90
52543;DHT22;38449;52.696;6.186;2023-04-25T13:12:44;10.70;99.90
52543;DHT22;38449;52.696;6.186;2023-04-25T13:15:10;10.70;99.90
52543;DHT22;38449;52.696;6.186;2023-04-25T13:17:37;10.40;99.90
52543;DHT22;38449;52.696;6.186;2023-04-25T13:20:08;10.10;99.90
52543;DHT22;38449;52.696;6.186;2023-04-25T13:22:37;10.20;99.90
52543;DHT22;38449;52.696;6.186;2023-04-25T13:25:05;10.30;99.90
52543;DHT22;38449;52.696;6.186;2023-04-25T13:27:31;10.60;99.90
52543;DHT22;38449;52.696;6.186;2023-04-25T13:30:00;10.60;99.90
52543;DHT22;38449;52.696;6.186;2023-04-25T13:32:27;10.50;99.90
52543;DHT22;38449;52.696;6.186;2023-04-25T13:34:53;10.30;99.90
52543;DHT22;38449;52.696;6.186;2023-04-25T13:37:20;10.10;99.90
52543;DHT22;38449;52.696;6.186;2023-04-25T13:39:46;10.20;99.90
52543;DHT22;38449;52.696;6.186;2023-04-25T13:42:12;10.00;99.90
52543;DHT22;38449;52.696;6.186;2023-04-25T13:44:39;10.40;99.90
52543;DHT22;38449;52.696;6.186;2023-04-25T13:47:05;10.50;99.90
52543;DHT22;38449;52.696;6.186;2023-04-25T13:49:31;10.30;99.90
52543;DHT22;38449;52.696;6.186;2023-04-25T13:51:57;10.20;99.90
52543;DHT22;38449;52.696;6.186;2023-04-25T13:54:24;10.00;99.90
52543;DHT22;38449;52.696;6.186;2023-04-25T13:56:50;9.80;99.90
52543;DHT22;38449;52.696;6.186;2023-04-25T13:59:17;9.90;99.90
52543;DHT22;38449;52.696;6.186;2023-04-25T14:01:44;9.90;99.90
52543;DHT22;38449;52.696;6.186;2023-04-25T14:04:10;9.80;99.90
52543;DHT22;38449;52.696;6.186;2023-04-25T14:06:37;9.70;99.90
52543;DHT22;38449;52.696;6.186;2023-04-25T14:09:04;9.70;99.90
52543;DHT22;38449;52.696;6.186;2023-04-25T14:11:32;9.60;99.90
52543;DHT22;38449;52.696;6.186;2023-04-25T14:13:58;9.90;99.90
52543;DHT22;38449;52.696;6.186;2023-04-25T14:16:25;9.70;99.90
52543;DHT22;38449;52.696;6.186;2023-04-25T14:18:51;9.70;99.90
52543;DHT22;38449;52.696;6.186;2023-04-25T14:21:17;9.70;99.90
52543;DHT22;38449;52.696;6.186;2023-04-25T14:23:43;9.70;99.90
52543;DHT22;38449;52.696;6.186;2023-04-25T14:26:10;9.60;99.90
52543;DHT22;38449;52.696;6.186;2023-04-25T14:28:38;9.60;99.90
52543;DHT22;38449;52.696;6.186;2023-04-25T14:31:04;9.60;99.90
52543;DHT22;38449;52.696;6.186;2023-04-25T14:33:31;10.00;99.90
52543;DHT22;38449;52.696;6.186;2023-04-25T14:35:57;10.10;99.90
52543;DHT22;38449;52.696;6.186;2023-04-25T14:38:26;10.30;99.90
52543;DHT22;38449;52.696;6.186;2023-04-25T14:40:52;10.40;99.90
52543;DHT22;38449;52.696;6.186;2023-04-25T14:43:20;10.30;99.90
52543;DHT22;38449;52.696;6.186;2023-04-25T14:45:46;10.20;99.90
52543;DHT22;38449;52.696;6.186;2023-04-25T14:48:12;10.00;99.90
52543;DHT22;38449;52.696;6.186;2023-04-25T14:50:38;9.90;99.90
52543;DHT22;38449;52.696;6.186;2023-04-25T14:53:04;9.60;99.90
52543;DHT22;38449;52.696;6.186;2023-04-25T14:55:31;9.40;99.90
52543;DHT22;38449;52.696;6.186;2023-04-25T14:57:57;9.10;99.90
52543;DHT22;38449;52.696;6.186;2023-04-25T15:00:24;8.60;99.90
52543;DHT22;38449;52.696;6.186;2023-04-25T15:02:51;8.50;99.90
52543;DHT22;38449;52.696;6.186;2023-04-25T15:05:17;8.50;99.90
52543;DHT22;38449;52.696;6.186;2023-04-25T15:07:44;8.80;99.90
52543;DHT22;38449;52.696;6.186;2023-04-25T15:10:10;9.10;99.90
52543;DHT22;38449;52.696;6.186;2023-04-25T15:12:43;9.50;99.90
52543;DHT22;38449;52.696;6.186;2023-04-25T15:15:10;9.80;99.90
52543;DHT22;38449;52.696;6.186;2023-04-25T15:17:41;10.10;99.90
52543;DHT22;38449;52.696;6.186;2023-04-25T15:20:12;10.40;99.90
52543;DHT22;38449;52.696;6.186;2023-04-25T15:22:43;10.60;99.90
52543;DHT22;38449;52.696;6.186;2023-04-25T15:25:10;10.90;99.90
52543;DHT22;38449;52.696;6.186;2023-04-25T15:27:39;10.90;99.90
52543;DHT22;38449;52.696;6.186;2023-04-25T15:30:08;10.90;99.90
52543;DHT22;38449;52.696;6.186;2023-04-25T15:32:37;10.90;99.90
52543;DHT22;38449;52.696;6.186;2023-04-25T15:35:05;10.80;99.90
52543;DHT22;38449;52.696;6.186;2023-04-25T15:37:32;10.60;99.90
52543;DHT22;38449;52.696;6.186;2023-04-25T15:40:08;10.70;99.90
52543;DHT22;38449;52.696;6.186;2023-04-25T15:42:36;10.60;99.90
52543;DHT22;38449;52.696;6.186;2023-04-25T15:45:07;10.70;99.90
52543;DHT22;38449;52.696;6.186;2023-04-25T15:47:35;10.40;99.90
52543;DHT22;38449;52.696;6.186;2023-04-25T15:50:03;10.60;99.90
52543;DHT22;38449;52.696;6.186;2023-04-25T15:52:30;10.40;99.90
52543;DHT22;38449;52.696;6.186;2023-04-25T15:54:56;10.20;99.90
52543;DHT22;38449;52.696;6.186;2023-04-25T15:57:23;10.00;99.90